Hurley, Missouri
Current Conditions -  °F | °C
As of 2:15 AM on Monday 24 Nov 2014 (Local Time) from KFWB Reporting Station
Broken Clouds Broken Clouds  
Wind Chill: 32°   Ceiling: 9000
Heat Index: 39°   Visibility: 10mi
Dew Point: 36°   Wind: 13mph
Humidity: 87%   Direction: 280°W
Pressure: 29.59"   Gusts: 21mph
Location:  36.93°N, 93.5°W
Report Text: KFWB 240815Z AUTO 28011G18KT 10SM FEW065 SCT075 BKN090 04/02 A2959 RMK AO2
Loading
Personal Weather Stations






























Interactive Weather Map New forecast layout! Learn more

10-Day Weather Forecast

Advertisements
Track Severe Weather on mobile